Oakland, California
Current Conditions -  °F | °C
As of 4:53 PM on Wednesday 22 Oct 2014 (Local Time) from KOAK Reporting Station
Scattered Clouds Scattered Clouds  
Wind Chill: 70°   Ceiling: Unl
Heat Index: 70°   Visibility: 10mi
Dew Point: 55°   Wind: 10mph
Humidity: 59%   Direction: 290°WNW
Pressure: 30.02"   Gusts: NA
Location:  37.81°N, 122.27°W
Report Text: KOAK 222353Z 29009KT 10SM SCT200 21/13 A3002 RMK AO2 SLP166 T02110128 10217 20167 56010
Loading
Personal Weather Stations






























Interactive Weather Map
Tropical Storm Tracking
New forecast layout! Learn more

10-Day Weather Forecast

Advertisements
Track Severe Weather on mobile